createdAt,value
2018-09-24T00:00:22.206Z,24.20
2018-09-24T00:02:50.581Z,26.70
2018-09-24T00:05:18.988Z,26.20
2018-09-24T00:07:47.429Z,22.53
2018-09-24T00:10:15.965Z,27.90
2018-09-24T00:12:44.354Z,25.57
2018-09-24T00:15:12.757Z,19.13
2018-09-24T00:17:41.149Z,22.77
2018-09-24T00:20:09.793Z,21.67
2018-09-24T00:22:38.177Z,23.80
2018-09-24T00:25:06.618Z,27.40
2018-09-24T00:27:35.240Z,25.37
2018-09-24T00:30:03.705Z,25.73
2018-09-24T00:32:32.128Z,21.20
2018-09-24T00:35:00.518Z,27.50
2018-09-24T00:37:28.913Z,24.63
2018-09-24T00:39:57.353Z,24.00
2018-09-24T00:42:25.752Z,20.73
2018-09-24T00:44:54.177Z,21.67
2018-09-24T00:47:22.776Z,23.30
2018-09-24T00:49:51.141Z,26.37
2018-09-24T00:52:20.073Z,25.10
2018-09-24T00:54:48.600Z,20.67
2018-09-24T00:57:17.070Z,24.10
2018-09-24T00:59:45.470Z,26.57
2018-09-24T01:02:13.864Z,30.77
2018-09-24T01:04:42.259Z,23.73
2018-09-24T01:07:10.702Z,22.07
2018-09-24T01:09:39.101Z,27.33
2018-09-24T01:12:07.517Z,25.13
2018-09-24T01:14:35.912Z,20.77
2018-09-24T01:17:04.368Z,23.20
2018-09-24T01:19:33.012Z,21.77
2018-09-24T01:22:01.412Z,26.47
2018-09-24T01:24:29.816Z,19.27
2018-09-24T01:26:58.273Z,24.10
2018-09-24T01:29:26.627Z,21.33
2018-09-24T01:31:55.056Z,25.03
2018-09-24T01:34:23.444Z,22.27
2018-09-24T01:36:51.835Z,22.93
2018-09-24T01:39:20.230Z,19.73
2018-09-24T01:41:48.609Z,21.13
2018-09-24T01:44:17.017Z,20.73
2018-09-24T01:46:45.572Z,15.17
2018-09-24T01:49:14.053Z,18.80
2018-09-24T01:51:42.565Z,21.97
2018-09-24T01:54:10.941Z,18.77
2018-09-24T01:56:39.341Z,14.70
2018-09-24T01:59:07.713Z,20.47
2018-09-24T02:01:36.112Z,20.37
2018-09-24T02:04:04.505Z,19.87
2018-09-24T02:06:32.888Z,21.00
2018-09-24T02:09:01.298Z,20.10
2018-09-24T02:11:29.664Z,22.53
2018-09-24T02:13:58.077Z,19.97
2018-09-24T02:16:26.452Z,15.60
2018-09-24T02:18:59.347Z,20.83
2018-09-24T02:21:28.046Z,19.87
2018-09-24T02:26:38.656Z,20.03
2018-09-24T02:29:07.071Z,18.60
2018-09-24T02:31:39.621Z,17.83
2018-09-24T02:34:09.216Z,21.57
2018-09-24T02:36:37.777Z,21.03
2018-09-24T02:39:08.119Z,21.67
2018-09-24T02:41:36.514Z,15.13
2018-09-24T02:44:04.913Z,13.27
2018-09-24T02:46:33.717Z,22.37
2018-09-24T02:49:03.667Z,17.60
2018-09-24T02:51:32.682Z,16.30
2018-09-24T02:54:01.068Z,16.83
2018-09-24T02:56:29.452Z,19.03
2018-09-24T02:58:57.840Z,14.67
2018-09-24T03:01:31.666Z,24.00
2018-09-24T03:04:00.109Z,14.70
2018-09-24T03:06:33.814Z,16.33
2018-09-24T03:09:02.205Z,20.03
2018-09-24T03:11:30.586Z,18.13
2018-09-24T03:13:58.965Z,17.33
2018-09-24T03:16:27.623Z,19.30
2018-09-24T03:18:57.709Z,22.80
2018-09-24T03:21:26.235Z,19.83
2018-09-24T03:23:54.652Z,14.53
2018-09-24T03:26:23.137Z,14.77
2018-09-24T03:28:51.469Z,19.50
2018-09-24T03:31:19.891Z,20.20
2018-09-24T03:33:48.374Z,17.70
2018-09-24T03:36:16.947Z,21.57
2018-09-24T03:38:45.372Z,21.03
2018-09-24T03:41:13.773Z,19.67
2018-09-24T03:43:42.231Z,15.17
2018-09-24T03:46:10.640Z,18.63
2018-09-24T03:48:39.009Z,15.17
2018-09-24T03:51:07.429Z,10.90
2018-09-24T03:53:35.805Z,23.33
2018-09-24T03:56:04.192Z,19.23
2018-09-24T03:58:32.588Z,16.33
2018-09-24T04:01:00.992Z,14.73
2018-09-24T04:03:29.364Z,17.60
2018-09-24T04:06:03.273Z,15.63
2018-09-24T04:08:37.180Z,14.97
2018-09-24T04:11:10.970Z,18.47
2018-09-24T04:13:44.619Z,18.50
2018-09-24T04:16:18.385Z,14.43
2018-09-24T04:18:52.183Z,15.77
2018-09-24T04:21:25.918Z,18.77
2018-09-24T04:23:59.582Z,13.40
2018-09-24T04:26:33.206Z,16.60
2018-09-24T04:29:06.940Z,13.57
2018-09-24T04:31:40.925Z,11.77
2018-09-24T04:34:14.581Z,17.17
2018-09-24T04:36:48.414Z,13.60
2018-09-24T04:39:22.239Z,14.40
2018-09-24T04:41:55.907Z,16.43
2018-09-24T04:44:29.701Z,11.37
2018-09-24T04:47:03.577Z,9.90
2018-09-24T04:49:37.402Z,11.60
2018-09-24T04:52:11.293Z,13.70
2018-09-24T04:54:45.141Z,13.70
2018-09-24T04:57:19.068Z,13.20
2018-09-24T04:59:52.758Z,15.13
2018-09-24T05:02:27.571Z,13.07
2018-09-24T05:05:01.137Z,15.87
2018-09-24T05:07:35.005Z,17.47
2018-09-24T05:10:09.724Z,15.77
2018-09-24T05:12:43.496Z,17.63
2018-09-24T05:15:17.097Z,10.83
2018-09-24T05:17:50.830Z,19.07
2018-09-24T05:20:24.543Z,11.77
2018-09-24T05:22:58.213Z,15.63
2018-09-24T05:25:31.899Z,12.23
2018-09-24T05:28:05.609Z,13.27
2018-09-24T05:30:40.273Z,11.40
2018-09-24T05:33:13.893Z,8.10
2018-09-24T05:35:47.640Z,16.60
2018-09-24T05:38:21.472Z,9.73
2018-09-24T05:40:55.172Z,15.57
2018-09-24T05:43:29.092Z,11.03
2018-09-24T05:46:02.857Z,14.40
2018-09-24T05:48:36.677Z,7.30
2018-09-24T05:51:10.808Z,9.63
2018-09-24T05:53:44.596Z,12.53
2018-09-24T05:56:18.381Z,17.70
2018-09-24T05:58:52.242Z,10.07
2018-09-24T06:01:26.038Z,17.30
2018-09-24T06:04:00.040Z,9.80
2018-09-24T06:06:33.945Z,13.23
2018-09-24T06:09:07.756Z,7.23
2018-09-24T06:11:41.598Z,8.53
2018-09-24T06:14:15.468Z,11.03
2018-09-24T06:16:49.030Z,7.50
2018-09-24T06:19:23.042Z,11.93
2018-09-24T06:21:56.765Z,11.40
2018-09-24T06:24:30.386Z,11.60
2018-09-24T06:27:04.278Z,8.57
2018-09-24T06:29:38.323Z,7.30
2018-09-24T06:32:12.161Z,10.60
2018-09-24T06:34:45.997Z,7.80
2018-09-24T06:37:19.789Z,17.53
2018-09-24T06:39:53.537Z,13.00
2018-09-24T06:42:27.406Z,9.90
2018-09-24T06:45:01.124Z,8.33
2018-09-24T06:47:34.692Z,8.17
2018-09-24T06:50:08.417Z,7.50
2018-09-24T06:52:42.102Z,11.40
2018-09-24T06:55:15.708Z,5.97
2018-09-24T06:57:49.436Z,9.90
2018-09-24T07:00:23.117Z,8.23
2018-09-24T07:02:56.922Z,11.40
2018-09-24T07:05:31.042Z,8.53
2018-09-24T07:08:04.848Z,5.20
2018-09-24T07:10:39.057Z,5.60
2018-09-24T07:13:12.780Z,5.50
2018-09-24T07:15:46.501Z,9.50
2018-09-24T07:18:20.209Z,9.30
2018-09-24T07:20:53.983Z,7.50
2018-09-24T07:23:27.653Z,9.87
2018-09-24T07:26:01.410Z,9.17
2018-09-24T07:28:35.073Z,9.23
2018-09-24T07:31:08.797Z,12.50
2018-09-24T07:33:42.449Z,13.10
2018-09-24T07:36:16.087Z,9.53
2018-09-24T07:38:49.867Z,11.13
2018-09-24T07:41:23.598Z,11.73
2018-09-24T07:43:57.644Z,10.17
2018-09-24T07:46:31.377Z,9.30
2018-09-24T07:49:05.334Z,8.97
2018-09-24T07:51:38.992Z,6.03
2018-09-24T07:54:12.629Z,10.13
2018-09-24T07:56:46.300Z,9.00
2018-09-24T07:59:20.039Z,7.63
2018-09-24T08:01:53.721Z,5.43
2018-09-24T08:04:27.562Z,9.97
2018-09-24T08:07:01.333Z,11.53
2018-09-24T08:09:35.356Z,14.50
2018-09-24T08:12:09.154Z,9.00
2018-09-24T08:14:43.193Z,7.20
2018-09-24T08:17:16.890Z,9.40
2018-09-24T08:19:50.703Z,7.13
2018-09-24T08:22:24.573Z,10.70
2018-09-24T08:24:58.257Z,7.63
2018-09-24T08:27:31.888Z,8.17
2018-09-24T08:30:05.673Z,6.30
2018-09-24T08:32:39.368Z,7.30
2018-09-24T08:35:13.101Z,8.07
2018-09-24T08:37:46.773Z,9.73
2018-09-24T08:40:20.820Z,10.63
2018-09-24T08:42:54.562Z,5.10
2018-09-24T08:45:28.230Z,4.23
2018-09-24T08:48:01.940Z,10.60
2018-09-24T08:50:35.832Z,12.00
2018-09-24T08:53:09.558Z,5.67
2018-09-24T08:55:43.310Z,7.77
2018-09-24T08:58:17.121Z,7.67
2018-09-24T09:00:50.853Z,12.60
2018-09-24T09:03:24.599Z,8.23
2018-09-24T09:05:58.247Z,8.53
2018-09-24T09:08:31.833Z,7.97
2018-09-24T09:11:05.452Z,7.37
2018-09-24T09:13:39.185Z,5.40
2018-09-24T09:16:13.141Z,8.87
2018-09-24T09:18:46.869Z,13.50
2018-09-24T09:21:20.684Z,10.97
2018-09-24T09:23:54.643Z,4.83
2018-09-24T09:26:28.335Z,3.57
2018-09-24T09:29:02.207Z,10.60
2018-09-24T09:31:36.051Z,5.50
2018-09-24T09:34:09.802Z,6.73
2018-09-24T09:36:43.467Z,10.20
2018-09-24T09:39:17.521Z,6.50
2018-09-24T09:41:51.284Z,8.23
2018-09-24T09:44:25.117Z,5.77
2018-09-24T09:46:58.869Z,5.30
2018-09-24T09:49:32.635Z,8.20
2018-09-24T09:52:06.312Z,7.97
2018-09-24T09:54:40.037Z,8.50
2018-09-24T09:57:13.721Z,3.60
2018-09-24T09:59:47.429Z,10.73
2018-09-24T10:02:21.001Z,7.37
2018-09-24T10:04:54.960Z,5.87
2018-09-24T10:07:28.709Z,9.53
2018-09-24T10:10:02.662Z,8.00
2018-09-24T10:12:36.428Z,5.50
2018-09-24T10:15:10.273Z,5.67
2018-09-24T10:17:44.022Z,5.60
2018-09-24T10:20:17.873Z,7.13
2018-09-24T10:22:51.465Z,8.00
2018-09-24T10:25:25.407Z,7.40
2018-09-24T10:27:59.178Z,6.07
2018-09-24T10:30:32.986Z,4.10
2018-09-24T10:33:06.702Z,5.50
2018-09-24T10:35:40.491Z,4.70
2018-09-24T10:38:14.221Z,5.67
2018-09-24T10:40:48.222Z,4.37
2018-09-24T10:43:21.827Z,5.37
2018-09-24T10:45:55.739Z,5.50
2018-09-24T10:48:29.511Z,8.77
2018-09-24T10:51:03.257Z,8.17
2018-09-24T10:53:37.038Z,6.80
2018-09-24T10:56:10.930Z,6.60
2018-09-24T10:58:44.735Z,4.00
2018-09-24T11:01:18.587Z,6.43
2018-09-24T11:03:52.458Z,2.90
2018-09-24T11:06:26.064Z,4.23
2018-09-24T11:08:59.832Z,3.17
2018-09-24T11:11:34.000Z,4.73
2018-09-24T11:14:07.697Z,6.30
2018-09-24T11:16:41.597Z,10.03
2018-09-24T11:19:14.972Z,3.17
2018-09-24T11:21:48.915Z,3.37
2018-09-24T11:24:22.790Z,9.03
2018-09-24T11:26:56.744Z,6.83
2018-09-24T11:29:30.549Z,6.83
2018-09-24T11:32:04.269Z,9.40
2018-09-24T11:34:38.128Z,6.20
2018-09-24T11:37:11.868Z,5.70
2018-09-24T11:39:45.744Z,6.37
2018-09-24T11:42:19.592Z,2.57
2018-09-24T11:44:53.322Z,5.10
2018-09-24T11:47:27.017Z,4.30
2018-09-24T11:50:00.837Z,7.03
2018-09-24T11:52:34.621Z,7.80
2018-09-24T11:55:08.341Z,6.27
2018-09-24T11:57:41.940Z,9.93
2018-09-24T12:00:15.689Z,6.27
2018-09-24T12:02:49.582Z,7.43
2018-09-24T12:05:23.297Z,2.70
2018-09-24T12:07:57.069Z,6.63
2018-09-24T12:10:30.807Z,5.73
2018-09-24T12:13:04.470Z,5.57
2018-09-24T12:15:38.231Z,4.70
2018-09-24T12:18:11.922Z,5.77
2018-09-24T12:20:45.656Z,3.73
2018-09-24T12:23:19.380Z,3.00
2018-09-24T12:25:52.952Z,3.37
2018-09-24T12:28:26.789Z,4.20
2018-09-24T12:31:00.560Z,5.40
2018-09-24T12:33:34.545Z,3.10
2018-09-24T12:36:08.434Z,3.67
2018-09-24T12:38:42.129Z,1.73
2018-09-24T12:41:15.819Z,3.43
2018-09-24T12:43:49.424Z,3.90
2018-09-24T12:46:23.188Z,3.93
2018-09-24T12:48:56.873Z,1.27
2018-09-24T12:51:30.561Z,1.63
2018-09-24T12:54:04.466Z,3.30
2018-09-24T12:56:38.254Z,2.70
2018-09-24T12:59:12.176Z,4.97
2018-09-24T13:01:45.976Z,1.83
2018-09-24T13:04:19.744Z,5.00
2018-09-24T13:06:53.363Z,3.00
2018-09-24T13:09:27.209Z,2.90
2018-09-24T13:12:01.020Z,2.83
2018-09-24T13:14:34.764Z,1.00
2018-09-24T13:17:08.392Z,5.47
2018-09-24T13:19:42.155Z,2.37
2018-09-24T13:22:16.103Z,2.60
2018-09-24T13:24:50.014Z,1.90
2018-09-24T13:27:23.592Z,2.20
2018-09-24T13:29:57.281Z,3.27
2018-09-24T13:32:31.449Z,6.10
2018-09-24T13:35:05.025Z,3.27
2018-09-24T13:37:38.836Z,6.30
2018-09-24T13:40:12.614Z,5.40
2018-09-24T13:42:46.344Z,3.03
2018-09-24T13:45:20.263Z,6.17
2018-09-24T13:47:54.156Z,5.27
2018-09-24T13:50:27.961Z,2.87
2018-09-24T13:53:01.683Z,6.00
2018-09-24T13:55:35.443Z,6.37
2018-09-24T13:58:09.368Z,5.17
2018-09-24T14:00:43.189Z,6.03
2018-09-24T14:03:16.893Z,9.70
2018-09-24T14:05:50.679Z,5.07
2018-09-24T14:08:24.381Z,3.40
2018-09-24T14:10:58.203Z,22.90
2018-09-24T14:13:31.917Z,7.67
2018-09-24T14:16:05.692Z,4.67
2018-09-24T14:18:39.654Z,10.07
2018-09-24T14:21:13.264Z,11.17
2018-09-24T14:23:47.228Z,9.43
2018-09-24T14:26:21.003Z,11.03
2018-09-24T14:28:54.945Z,8.40
2018-09-24T14:31:28.836Z,6.30
2018-09-24T14:34:02.577Z,10.50
2018-09-24T14:36:36.316Z,7.20
2018-09-24T14:39:12.576Z,5.40
2018-09-24T14:41:46.935Z,4.50
2018-09-24T14:44:20.743Z,6.00
2018-09-24T14:46:54.398Z,15.57
2018-09-24T14:49:28.380Z,5.40
2018-09-24T14:52:02.089Z,7.90
2018-09-24T14:54:35.844Z,8.20
2018-09-24T14:57:09.667Z,11.10
2018-09-24T14:59:43.454Z,5.13
2018-09-24T15:02:17.151Z,13.73
2018-09-24T15:04:50.889Z,6.80
2018-09-24T15:07:24.577Z,3.90
2018-09-24T15:09:58.412Z,8.47
2018-09-24T15:12:32.318Z,6.27
2018-09-24T15:15:06.419Z,6.73
2018-09-24T15:17:40.308Z,9.07
2018-09-24T15:20:14.636Z,11.73
2018-09-24T15:22:48.316Z,11.03
2018-09-24T15:25:29.136Z,10.37
2018-09-24T15:28:02.833Z,8.13
2018-09-24T15:30:36.535Z,10.43
2018-09-24T15:33:10.385Z,8.40
2018-09-24T15:35:44.095Z,8.03
2018-09-24T15:38:17.841Z,7.50
2018-09-24T15:40:51.761Z,9.70
2018-09-24T15:43:25.528Z,6.37
2018-09-24T15:45:59.352Z,8.30
2018-09-24T15:48:33.019Z,10.73
2018-09-24T15:51:06.641Z,11.00
2018-09-24T15:53:40.430Z,9.20
2018-09-24T15:56:14.151Z,6.53
2018-09-24T15:58:48.162Z,8.57
2018-09-24T16:01:21.900Z,7.97
2018-09-24T16:03:55.581Z,13.43
2018-09-24T16:06:29.329Z,12.17
2018-09-24T16:09:03.304Z,11.53
2018-09-24T16:11:36.969Z,12.37
2018-09-24T16:14:10.764Z,10.90
2018-09-24T16:16:44.602Z,11.63
2018-09-24T16:19:18.574Z,10.80
2018-09-24T16:21:52.497Z,7.83
2018-09-24T16:24:26.188Z,12.40
2018-09-24T16:27:00.105Z,7.97
2018-09-24T16:29:33.806Z,7.80
2018-09-24T16:32:07.401Z,5.50
2018-09-24T16:34:41.172Z,11.73
2018-09-24T16:37:14.814Z,8.50
2018-09-24T16:39:48.613Z,10.30
2018-09-24T16:42:22.232Z,10.47
2018-09-24T16:44:56.120Z,7.70
2018-09-24T16:47:29.962Z,11.53
2018-09-24T16:50:03.710Z,7.27
2018-09-24T16:52:37.565Z,9.17
2018-09-24T16:55:11.137Z,7.93
2018-09-24T16:57:44.761Z,10.33
2018-09-24T17:00:18.584Z,7.17
2018-09-24T17:02:53.017Z,8.40
2018-09-24T17:05:26.959Z,6.40
2018-09-24T17:08:01.159Z,8.47
2018-09-24T17:10:34.871Z,12.83
2018-09-24T17:13:08.688Z,7.00
2018-09-24T17:15:42.395Z,16.07
2018-09-24T17:18:16.117Z,9.67
2018-09-24T17:20:49.845Z,12.77
2018-09-24T17:23:23.749Z,13.93
2018-09-24T17:25:57.325Z,17.37
2018-09-24T17:28:31.246Z,7.40
2018-09-24T17:31:04.877Z,7.10
2018-09-24T17:33:38.509Z,11.33
2018-09-24T17:36:12.542Z,7.83
2018-09-24T17:38:46.443Z,14.07
2018-09-24T17:41:20.416Z,11.53
2018-09-24T17:43:54.357Z,9.10
2018-09-24T17:46:28.095Z,11.13
2018-09-24T17:49:01.852Z,14.33
2018-09-24T17:51:35.746Z,6.80
2018-09-24T17:54:09.356Z,12.60
2018-09-24T17:56:43.153Z,14.30
2018-09-24T17:59:16.976Z,10.63
2018-09-24T18:01:50.678Z,5.47
2018-09-24T18:04:24.514Z,5.53
2018-09-24T18:06:58.252Z,3.83
2018-09-24T18:09:32.026Z,5.47
2018-09-24T18:12:05.801Z,7.10
2018-09-24T18:14:39.397Z,4.07
2018-09-24T18:17:13.121Z,2.40
2018-09-24T18:19:47.133Z,4.20
2018-09-24T18:22:20.915Z,7.37
2018-09-24T18:24:54.685Z,5.37
2018-09-24T18:27:28.416Z,7.53
2018-09-24T18:30:02.196Z,6.83
2018-09-24T18:32:36.028Z,12.23
2018-09-24T18:35:09.955Z,9.10
2018-09-24T18:37:43.634Z,8.40
2018-09-24T18:40:17.604Z,9.90
2018-09-24T18:42:51.489Z,5.30
2018-09-24T18:45:25.264Z,8.37
2018-09-24T18:47:58.962Z,8.07
2018-09-24T18:50:32.686Z,5.77
2018-09-24T18:53:06.547Z,7.63
2018-09-24T18:55:40.492Z,8.63
2018-09-24T18:58:14.248Z,12.53
2018-09-24T19:00:48.222Z,8.60
2018-09-24T19:03:21.976Z,7.93
2018-09-24T19:05:55.933Z,10.60
2018-09-24T19:08:29.810Z,7.67
2018-09-24T19:11:03.888Z,11.40
2018-09-24T19:13:37.502Z,9.37
2018-09-24T19:16:11.241Z,7.80
2018-09-24T19:18:45.190Z,11.83
2018-09-24T19:21:19.100Z,12.80
2018-09-24T19:23:53.053Z,15.57
2018-09-24T19:26:27.029Z,11.43
2018-09-24T19:29:00.876Z,8.60
2018-09-24T19:31:34.703Z,13.30
2018-09-24T19:34:08.532Z,7.13
2018-09-24T19:36:42.518Z,8.60
2018-09-24T19:39:16.442Z,10.17
2018-09-24T19:41:50.096Z,6.73
2018-09-24T19:44:23.796Z,13.07
2018-09-24T19:46:57.532Z,11.27
2018-09-24T19:49:31.288Z,8.27
2018-09-24T19:52:05.340Z,10.00
2018-09-24T19:54:39.020Z,14.60
2018-09-24T19:57:13.095Z,13.43
2018-09-24T19:59:46.921Z,6.87
2018-09-24T20:02:20.893Z,12.37
2018-09-24T20:04:54.760Z,13.73
2018-09-24T20:07:28.555Z,5.87
2018-09-24T20:10:02.390Z,8.67
2018-09-24T20:12:36.389Z,6.73
2018-09-24T20:15:10.205Z,7.63
2018-09-24T20:17:44.116Z,8.73
2018-09-24T20:20:17.800Z,10.83
2018-09-24T20:22:51.812Z,3.23
2018-09-24T20:25:25.699Z,4.97
2018-09-24T20:27:59.430Z,6.17
2018-09-24T20:30:33.202Z,13.50
2018-09-24T20:33:06.954Z,7.00
2018-09-24T20:35:40.836Z,9.40
2018-09-24T20:38:14.643Z,11.50
2018-09-24T20:40:48.284Z,8.30
2018-09-24T20:43:21.921Z,11.33
2018-09-24T20:45:55.777Z,5.10
2018-09-24T20:48:30.473Z,10.63
2018-09-24T20:51:04.353Z,9.50
2018-09-24T20:53:38.073Z,8.97
2018-09-24T20:56:12.132Z,14.53
2018-09-24T20:58:46.014Z,6.20
2018-09-24T21:01:19.616Z,8.63
2018-09-24T21:03:53.380Z,6.93
2018-09-24T21:06:27.149Z,7.73
2018-09-24T21:09:01.008Z,8.27
2018-09-24T21:11:34.669Z,6.63
2018-09-24T21:14:08.400Z,7.73
2018-09-24T21:16:42.011Z,5.03
2018-09-24T21:19:15.813Z,10.00
2018-09-24T21:21:49.628Z,5.63
2018-09-24T21:24:23.321Z,5.93
2018-09-24T21:26:57.029Z,5.00
2018-09-24T21:29:30.842Z,8.70
2018-09-24T21:32:04.612Z,6.40
2018-09-24T21:34:38.492Z,9.47
2018-09-24T21:37:12.077Z,9.90
2018-09-24T21:39:45.724Z,7.97
2018-09-24T21:42:19.636Z,14.27
2018-09-24T21:44:53.387Z,10.13
2018-09-24T21:47:27.102Z,6.70
2018-09-24T21:50:00.874Z,8.57
2018-09-24T21:52:34.592Z,10.13
2018-09-24T21:55:08.369Z,8.77
2018-09-24T21:57:42.285Z,7.80
2018-09-24T22:00:16.053Z,7.93
2018-09-24T22:02:49.849Z,9.83
2018-09-24T22:05:23.700Z,8.40
2018-09-24T22:07:57.456Z,9.83
2018-09-24T22:10:31.134Z,10.67
2018-09-24T22:13:04.784Z,11.97
2018-09-24T22:15:38.492Z,8.70
2018-09-24T22:18:12.472Z,10.63
2018-09-24T22:20:46.021Z,7.40
2018-09-24T22:23:19.980Z,8.20
2018-09-24T22:25:53.711Z,8.80
2018-09-24T22:28:27.324Z,6.60
2018-09-24T22:31:00.965Z,9.17
2018-09-24T22:33:34.849Z,12.80
2018-09-24T22:36:08.707Z,10.43
2018-09-24T22:38:42.460Z,8.70
2018-09-24T22:41:16.203Z,10.40
2018-09-24T22:43:50.036Z,7.40
2018-09-24T22:46:23.620Z,8.63
2018-09-24T22:48:57.258Z,9.30
2018-09-24T22:51:31.052Z,9.17
2018-09-24T22:54:04.872Z,8.47
2018-09-24T22:56:38.721Z,17.83
2018-09-24T22:59:12.652Z,13.27
2018-09-24T23:01:46.422Z,14.73
2018-09-24T23:04:20.320Z,5.57
2018-09-24T23:06:54.080Z,9.83
2018-09-24T23:09:28.107Z,10.43
2018-09-24T23:12:01.928Z,10.47
2018-09-24T23:14:35.699Z,9.17
2018-09-24T23:17:09.400Z,8.53
2018-09-24T23:19:43.174Z,12.30
2018-09-24T23:22:16.756Z,6.17
2018-09-24T23:24:50.420Z,12.87
2018-09-24T23:27:24.144Z,7.90
2018-09-24T23:29:58.141Z,11.00
2018-09-24T23:32:32.032Z,15.10
2018-09-24T23:35:05.768Z,14.07
2018-09-24T23:37:39.536Z,8.00
2018-09-24T23:40:13.348Z,6.00
2018-09-24T23:42:47.078Z,13.27
2018-09-24T23:45:20.832Z,7.00
2018-09-24T23:47:54.518Z,9.57
2018-09-24T23:50:28.373Z,7.03
2018-09-24T23:53:02.138Z,11.93
2018-09-24T23:55:35.975Z,6.70
2018-09-24T23:58:09.744Z,15.53
